Time;durP1;ratioP1;P1;durP2;ratioP2;P2;SDS_P1;SDS_P2;PMS_P1;PMS_P2;Temp;Humidity;BMP_temperature;BMP_pressure;BME280_temperature;BME280_humidity;BME280_pressure;Samples;Min_cycle;Max_cycle;Signal;HPM_P1;HPM_P2
2021/01/11 00:01:29;;;;;;;56.17;30.13;;;3.80;97.20;;;;;;5004104;28;20028;-75
2021/01/11 00:03:55;;;;;;;52.17;27.90;;;3.80;97.20;;;;;;4990301;28;20096;-76
2021/01/11 00:06:21;;;;;;;45.58;25.45;;;3.90;97.20;;;;;;4989557;28;20434;-76
2021/01/11 00:08:47;;;;;;;50.80;26.63;;;3.90;97.10;;;;;;4992835;28;20030;-76
2021/01/11 00:11:20;;;;;;;49.22;27.20;;;3.80;97.10;;;;;;4992919;28;20054;-75
2021/01/11 00:13:46;;;;;;;52.90;26.65;;;3.80;97.20;;;;;;4990703;28;20084;-75
2021/01/11 00:16:12;;;;;;;49.50;25.08;;;3.80;97.20;;;;;;4992192;28;20026;-76
2021/01/11 00:18:39;;;;;;;47.13;24.52;;;3.80;97.20;;;;;;4992108;28;20022;-75
2021/01/11 00:21:05;;;;;;;44.80;25.30;;;3.80;97.20;;;;;;4991695;28;20022;-75
2021/01/11 00:23:31;;;;;;;46.95;25.92;;;3.80;97.30;;;;;;5007433;28;20093;-76
2021/01/11 00:25:57;;;;;;;48.15;26.92;;;3.80;97.30;;;;;;4992432;28;20026;-75
2021/01/11 00:28:22;;;;;;;49.10;25.02;;;3.80;97.20;;;;;;4993113;28;20663;-76
2021/01/11 00:30:48;;;;;;;51.33;25.08;;;3.80;97.30;;;;;;4991163;28;20034;-75
2021/01/11 00:33:14;;;;;;;52.17;26.90;;;3.80;97.50;;;;;;4993428;28;20045;-76
2021/01/11 00:35:39;;;;;;;49.70;25.38;;;3.80;97.50;;;;;;4991351;28;20548;-76
2021/01/11 00:38:05;;;;;;;52.03;26.50;;;3.80;97.50;;;;;;4975983;28;20473;-74
2021/01/11 00:40:31;;;;;;;49.88;26.38;;;3.80;97.60;;;;;;4992547;28;20031;-75
2021/01/11 00:42:56;;;;;;;50.53;25.80;;;3.80;97.60;;;;;;4992970;28;20030;-77
2021/01/11 00:45:22;;;;;;;51.30;24.58;;;3.80;97.60;;;;;;4992085;28;20068;-77
2021/01/11 00:47:48;;;;;;;45.58;23.85;;;3.80;97.50;;;;;;4994115;28;20027;-75
2021/01/11 00:50:13;;;;;;;47.88;23.67;;;3.80;97.60;;;;;;4981557;28;20037;-75
2021/01/11 00:52:39;;;;;;;51.92;23.98;;;3.80;97.60;;;;;;4995453;28;20030;-77
2021/01/11 00:55:06;;;;;;;53.08;25.23;;;3.80;97.60;;;;;;4998051;28;20049;-75
2021/01/11 00:57:32;;;;;;;51.03;24.23;;;3.80;97.70;;;;;;4992151;28;20168;-75
2021/01/11 00:59:58;;;;;;;46.63;23.05;;;3.80;97.70;;;;;;4992301;28;20672;-75
2021/01/11 01:02:24;;;;;;;51.72;24.67;;;3.80;97.70;;;;;;4990545;28;20117;-75
2021/01/11 01:04:50;;;;;;;47.47;22.50;;;3.80;97.60;;;;;;4991866;28;20030;-75
2021/01/11 01:07:15;;;;;;;52.38;24.27;;;3.90;97.60;;;;;;4991644;28;20022;-77
2021/01/11 01:09:41;;;;;;;52.20;24.13;;;3.90;97.60;;;;;;4992400;28;20022;-75
2021/01/11 01:12:07;;;;;;;48.67;23.80;;;3.90;97.50;;;;;;4992398;28;20482;-75
2021/01/11 01:14:33;;;;;;;46.10;24.58;;;3.90;97.50;;;;;;5007503;28;20378;-75
2021/01/11 01:16:59;;;;;;;45.55;23.02;;;3.90;97.50;;;;;;4984948;28;20397;-75
2021/01/11 01:19:25;;;;;;;46.60;23.63;;;3.90;97.60;;;;;;4990939;28;20031;-74
2021/01/11 01:21:50;;;;;;;51.05;23.67;;;3.90;97.40;;;;;;4987172;28;20031;-75
2021/01/11 01:24:16;;;;;;;47.67;23.45;;;3.90;97.40;;;;;;4992300;28;20386;-74
2021/01/11 01:26:42;;;;;;;54.08;24.25;;;3.90;97.50;;;;;;4990827;28;20026;-75
2021/01/11 01:29:07;;;;;;;49.00;24.92;;;3.90;97.60;;;;;;4990902;28;20045;-75
2021/01/11 01:31:33;;;;;;;51.17;26.05;;;3.90;97.70;;;;;;4991255;28;20030;-75
2021/01/11 01:33:58;;;;;;;57.45;25.13;;;3.90;97.50;;;;;;4990359;28;20497;-75
2021/01/11 01:36:24;;;;;;;52.80;23.70;;;3.90;97.60;;;;;;4991231;28;20413;-75
2021/01/11 01:38:50;;;;;;;54.78;25.52;;;3.90;97.80;;;;;;4986846;28;20033;-74
2021/01/11 01:41:16;;;;;;;56.72;26.90;;;3.90;97.50;;;;;;4991874;28;20490;-77
2021/01/11 01:43:41;;;;;;;48.65;24.85;;;3.90;97.50;;;;;;4990995;28;20452;-74
2021/01/11 01:46:14;;;;;;;53.58;26.40;;;3.90;97.60;;;;;;4989533;28;20122;-75
2021/01/11 01:48:40;;;;;;;51.13;25.85;;;3.90;97.50;;;;;;4990050;28;20129;-75
2021/01/11 01:51:06;;;;;;;58.90;28.17;;;3.90;97.50;;;;;;4990227;28;20031;-75
2021/01/11 01:53:32;;;;;;;52.15;26.30;;;4.00;97.50;;;;;;4991657;28;20041;-75
2021/01/11 01:55:57;;;;;;;58.83;27.70;;;4.00;97.50;;;;;;4990215;28;20018;-74
2021/01/11 01:58:23;;;;;;;55.00;25.77;;;4.00;97.30;;;;;;4991705;28;20034;-76
2021/01/11 02:00:49;;;;;;;55.20;26.08;;;4.00;97.40;;;;;;5006935;28;20029;-76
2021/01/11 02:03:14;;;;;;;59.25;29.02;;;4.00;97.50;;;;;;4990442;28;20033;-76
2021/01/11 02:05:40;;;;;;;55.22;26.73;;;4.00;97.30;;;;;;4990335;28;20113;-76
2021/01/11 02:08:15;;;;;;;63.30;27.50;;;4.00;97.40;;;;;;4994891;28;20101;-77
2021/01/11 02:11:05;;;;;;;65.85;28.55;;;4.00;97.40;;;;;;4990849;28;20030;-74
2021/01/11 02:13:38;;;;;;;68.70;29.77;;;4.00;97.50;;;;;;4990505;28;20441;-74
2021/01/11 02:16:20;;;;;;;63.20;28.20;;;4.00;97.50;;;;;;4989982;28;20321;-75
2021/01/11 02:18:55;;;;;;;60.47;29.00;;;4.00;97.50;;;;;;4988593;28;20038;-77
2021/01/11 02:21:45;;;;;;;71.90;30.77;;;4.00;97.50;;;;;;4988092;28;20041;-74
2021/01/11 02:24:57;;;;;;;72.80;31.23;;;4.00;97.60;;;;;;4986028;28;20058;-75
2021/01/11 02:27:46;;;;;;;80.88;33.80;;;3.90;97.60;;;;;;4993043;28;20027;-75
2021/01/11 02:30:25;;;;;;;74.05;32.10;;;4.00;97.60;;;;;;4986032;28;20030;-75
2021/01/11 02:33:12;;;;;;;75.95;31.25;;;4.00;97.60;;;;;;5044197;22;20044;-75
2021/01/11 02:35:47;;;;;;;91.50;33.05;;;4.00;97.50;;;;;;5031056;28;20393;-75
2021/01/11 02:38:24;;;;;;;74.82;32.15;;;4.00;97.50;;;;;;5047741;28;20170;-75
2021/01/11 02:40:50;;;;;;;84.38;34.25;;;4.00;97.60;;;;;;5051633;28;20069;-75
2021/01/11 02:43:16;;;;;;;100.63;36.45;;;3.90;97.70;;;;;;5035696;28;20052;-75
2021/01/11 02:45:42;;;;;;;97.70;35.80;;;3.90;97.70;;;;;;5012721;28;20057;-75
2021/01/11 02:48:26;;;;;;;93.40;35.40;;;3.90;98.00;;;;;;5027393;28;20071;-75
2021/01/11 02:51:05;;;;;;;122.18;37.00;;;3.90;97.90;;;;;;5030949;28;20076;-75
2021/01/11 02:53:43;;;;;;;99.18;35.95;;;3.90;98.00;;;;;;5029566;28;20032;-75
2021/01/11 02:56:12;;;;;;;91.90;33.50;;;3.90;98.00;;;;;;5029000;28;20103;-75
2021/01/11 02:58:56;;;;;;;83.22;35.70;;;4.00;98.00;;;;;;5028944;28;20083;-75
2021/01/11 03:01:23;;;;;;;76.30;33.60;;;3.90;98.00;;;;;;5022689;28;20061;-75
2021/01/11 03:03:51;;;;;;;76.65;34.75;;;3.90;97.90;;;;;;5045111;28;20160;-75
2021/01/11 03:06:17;;;;;;;87.28;37.08;;;3.90;97.90;;;;;;5029068;28;20492;-75
2021/01/11 03:08:43;;;;;;;100.65;37.88;;;3.90;98.00;;;;;;5028539;28;20029;-75
2021/01/11 03:11:08;;;;;;;101.63;39.50;;;3.90;98.00;;;;;;5011619;28;20085;-75
2021/01/11 03:13:35;;;;;;;103.03;39.10;;;3.90;98.10;;;;;;5026728;28;20022;-75
2021/01/11 03:16:01;;;;;;;112.22;41.17;;;3.90;98.10;;;;;;5016881;28;20033;-75
2021/01/11 03:18:26;;;;;;;126.18;43.03;;;3.90;98.10;;;;;;5028610;28;20036;-75
2021/01/11 03:20:52;;;;;;;113.43;41.45;;;3.90;98.10;;;;;;5027195;28;20071;-75
2021/01/11 03:23:18;;;;;;;160.80;47.35;;;3.80;98.10;;;;;;5011868;28;20033;-75
2021/01/11 03:25:43;;;;;;;124.93;44.38;;;3.80;98.20;;;;;;5012110;28;20029;-75
2021/01/11 03:28:09;;;;;;;132.52;43.17;;;3.90;98.20;;;;;;5028446;28;20116;-75
2021/01/11 03:30:35;;;;;;;137.20;44.40;;;3.80;98.20;;;;;;5028129;28;20488;-75
2021/01/11 03:33:01;;;;;;;125.40;44.97;;;3.80;98.20;;;;;;5010999;28;20053;-74
2021/01/11 03:35:28;;;;;;;126.82;44.00;;;3.80;98.20;;;;;;5029327;28;20061;-75
2021/01/11 03:37:53;;;;;;;123.30;44.47;;;3.80;98.20;;;;;;5028114;28;20033;-75
2021/01/11 03:40:19;;;;;;;134.35;42.95;;;3.80;98.20;;;;;;5031235;28;20025;-74
2021/01/11 03:42:45;;;;;;;121.38;42.25;;;3.90;98.10;;;;;;5017598;28;20476;-75
2021/01/11 03:45:11;;;;;;;129.95;42.20;;;3.90;98.20;;;;;;5014683;28;20041;-75
2021/01/11 03:47:37;;;;;;;139.38;43.78;;;3.80;98.20;;;;;;5033182;28;20056;-75
2021/01/11 03:50:06;;;;;;;137.88;42.17;;;3.80;98.20;;;;;;5039539;28;20477;-75
2021/01/11 03:52:36;;;;;;;128.18;44.40;;;3.90;98.20;;;;;;5033424;28;20068;-75
2021/01/11 03:55:03;;;;;;;131.23;42.75;;;3.80;98.10;;;;;;5031353;28;20072;-75
2021/01/11 03:57:30;;;;;;;149.73;44.95;;;3.80;98.20;;;;;;5018323;28;20029;-75
2021/01/11 03:59:56;;;;;;;135.30;44.50;;;3.80;98.30;;;;;;5035181;28;20028;-75
2021/01/11 04:02:22;;;;;;;142.50;45.63;;;3.80;98.30;;;;;;5035122;28;20099;-75
2021/01/11 04:04:51;;;;;;;148.23;47.03;;;3.80;98.40;;;;;;5039140;28;20025;-75
2021/01/11 04:07:17;;;;;;;145.32;44.55;;;3.80;98.40;;;;;;5028992;28;20443;-75
2021/01/11 04:09:42;;;;;;;128.13;45.20;;;3.80;98.40;;;;;;5033765;28;20034;-75
2021/01/11 04:12:08;;;;;;;157.25;46.00;;;3.80;98.40;;;;;;5014973;28;20029;-75
2021/01/11 04:14:34;;;;;;;137.77;45.60;;;3.70;98.40;;;;;;5031912;28;20029;-75
2021/01/11 04:17:00;;;;;;;135.00;44.38;;;3.80;98.50;;;;;;5034223;28;20048;-75
2021/01/11 04:19:25;;;;;;;105.35;40.97;;;3.80;98.50;;;;;;5044509;28;20065;-75
2021/01/11 04:21:51;;;;;;;106.25;39.97;;;3.80;98.50;;;;;;5012731;28;20032;-75
2021/01/11 04:24:17;;;;;;;120.07;43.53;;;3.80;98.40;;;;;;5031296;28;20029;-75
2021/01/11 04:26:45;;;;;;;118.78;42.60;;;3.80;98.30;;;;;;5035362;28;20034;-75
2021/01/11 04:29:11;;;;;;;105.55;38.92;;;3.80;98.40;;;;;;5031737;28;20044;-75
2021/01/11 04:31:37;;;;;;;123.47;42.40;;;3.80;98.40;;;;;;5036821;28;20396;-75
2021/01/11 04:34:03;;;;;;;132.07;41.55;;;3.80;98.40;;;;;;5036966;28;20516;-75
2021/01/11 04:36:35;;;;;;;124.63;40.03;;;3.80;98.40;;;;;;5015113;28;20392;-75
2021/01/11 04:39:01;;;;;;;120.68;41.72;;;3.80;98.40;;;;;;5030454;28;20017;-75
2021/01/11 04:41:34;;;;;;;118.32;39.55;;;3.80;98.30;;;;;;5032948;28;20021;-75
2021/01/11 04:44:06;;;;;;;123.85;41.85;;;3.80;98.30;;;;;;5016720;28;20400;-75
2021/01/11 04:46:32;;;;;;;143.00;43.97;;;3.80;98.40;;;;;;5031753;28;20486;-75
2021/01/11 04:48:58;;;;;;;139.80;42.53;;;3.80;98.40;;;;;;5034091;28;20116;-75
2021/01/11 04:51:23;;;;;;;139.07;44.38;;;3.70;98.40;;;;;;5032647;28;20477;-75
2021/01/11 04:53:50;;;;;;;136.73;42.97;;;3.70;98.50;;;;;;5029638;28;20037;-75
2021/01/11 04:56:18;;;;;;;146.32;43.63;;;3.80;98.50;;;;;;5031151;28;20028;-75
2021/01/11 04:58:52;;;;;;;122.57;41.53;;;3.80;98.50;;;;;;5030066;28;20035;-75
2021/01/11 05:01:21;;;;;;;131.65;42.08;;;3.80;98.40;;;;;;5010967;28;20417;-75
2021/01/11 05:03:48;;;;;;;130.40;41.88;;;3.80;98.40;;;;;;5037826;28;20211;-75
2021/01/11 05:06:17;;;;;;;131.40;42.15;;;3.80;98.50;;;;;;5051035;28;20025;-75
2021/01/11 05:08:43;;;;;;;129.60;42.85;;;3.80;98.40;;;;;;5007617;28;20068;-75
2021/01/11 05:11:08;;;;;;;137.77;44.08;;;3.80;98.30;;;;;;5030996;28;20555;-75
2021/01/11 05:13:34;;;;;;;135.63;42.55;;;3.70;98.30;;;;;;5029250;28;20038;-75
2021/01/11 05:16:10;;;;;;;140.95;43.17;;;3.80;98.40;;;;;;5029631;28;20036;-75
2021/01/11 05:18:36;;;;;;;129.20;42.78;;;3.80;98.40;;;;;;5030832;28;20504;-75
2021/01/11 05:21:02;;;;;;;138.95;43.53;;;3.80;98.50;;;;;;5030122;28;20029;-75
2021/01/11 05:23:34;;;;;;;138.30;42.78;;;3.80;98.40;;;;;;5015465;28;20072;-75
2021/01/11 05:26:12;;;;;;;143.73;44.05;;;3.80;98.50;;;;;;5034085;28;20034;-75
2021/01/11 05:28:38;;;;;;;129.05;41.00;;;3.80;98.50;;;;;;5029733;28;20033;-75
2021/01/11 05:31:03;;;;;;;124.07;40.67;;;3.80;98.40;;;;;;5037689;28;20036;-75
2021/01/11 05:33:29;;;;;;;164.63;45.95;;;3.80;98.50;;;;;;5021476;28;20030;-75
2021/01/11 05:36:05;;;;;;;155.05;46.40;;;3.80;98.40;;;;;;5023114;28;20033;-74
2021/01/11 05:38:36;;;;;;;149.98;45.88;;;3.70;98.40;;;;;;5023168;28;20477;-74
2021/01/11 05:41:18;;;;;;;130.35;44.35;;;3.70;98.50;;;;;;5037706;28;20033;-75
2021/01/11 05:43:48;;;;;;;164.15;49.03;;;3.70;98.50;;;;;;5038607;28;20033;-74
2021/01/11 05:46:27;;;;;;;153.75;44.83;;;3.70;98.50;;;;;;5036569;28;20029;-74
2021/01/11 05:49:01;;;;;;;163.80;46.03;;;3.70;98.50;;;;;;5036835;28;20025;-75
2021/01/11 05:51:32;;;;;;;140.65;45.25;;;3.70;98.50;;;;;;5037821;28;20403;-75
2021/01/11 05:53:58;;;;;;;125.72;43.75;;;3.80;98.50;;;;;;5019923;28;20033;-75
2021/01/11 05:56:25;;;;;;;117.43;42.28;;;3.80;98.40;;;;;;5037128;28;20401;-75
2021/01/11 05:59:08;;;;;;;136.52;43.10;;;3.80;98.40;;;;;;5037703;28;20025;-75
2021/01/11 06:01:36;;;;;;;123.18;42.33;;;3.80;98.40;;;;;;5033933;28;20098;-75
2021/01/11 06:04:02;;;;;;;125.97;41.75;;;3.70;98.40;;;;;;5016601;28;20017;-75
2021/01/11 06:06:28;;;;;;;126.43;40.83;;;3.70;98.40;;;;;;5037481;28;20518;-75
2021/01/11 06:08:54;;;;;;;117.95;39.08;;;3.70;98.40;;;;;;5037067;28;20108;-75
2021/01/11 06:11:25;;;;;;;113.43;38.67;;;3.70;98.40;;;;;;5037682;28;20036;-75
2021/01/11 06:13:52;;;;;;;130.27;40.83;;;3.80;98.40;;;;;;5022121;28;20163;-75
2021/01/11 06:16:19;;;;;;;96.68;36.35;;;3.70;98.40;;;;;;5020935;28;20029;-75
2021/01/11 06:18:51;;;;;;;106.00;36.10;;;3.80;98.40;;;;;;5033982;28;20052;-76
2021/01/11 06:21:17;;;;;;;;;;;3.80;98.40;;;;;;5033867;28;20113;-75
2021/01/11 06:23:43;;;;;;;109.93;35.47;;;3.70;98.30;;;;;;5019808;28;19919;-75
2021/01/11 06:26:27;;;;;;;101.53;35.08;;;3.70;98.30;;;;;;5037233;28;20033;-76
2021/01/11 06:28:57;;;;;;;83.43;33.00;;;3.70;98.40;;;;;;5036969;28;20533;-76
2021/01/11 06:31:34;;;;;;;89.55;32.75;;;3.80;98.30;;;;;;5037111;28;20107;-75
2021/01/11 06:34:00;;;;;;;88.10;30.23;;;3.70;98.30;;;;;;5019088;28;20040;-75
2021/01/11 06:36:31;;;;;;;92.88;30.60;;;3.70;98.30;;;;;;5037047;28;20026;-75
2021/01/11 06:39:09;;;;;;;74.15;28.63;;;3.60;98.50;;;;;;5034776;28;20087;-75
2021/01/11 06:41:36;;;;;;;76.85;29.70;;;3.60;98.20;;;;;;5035960;28;20029;-75
2021/01/11 06:44:09;;;;;;;79.68;28.48;;;3.60;98.20;;;;;;5036941;28;20496;-75
2021/01/11 06:46:43;;;;;;;76.90;27.58;;;3.60;98.20;;;;;;5017863;28;20029;-75
2021/01/11 06:49:22;;;;;;;78.13;28.95;;;3.60;98.30;;;;;;5015496;28;20028;-76
2021/01/11 06:52:04;;;;;;;78.85;28.02;;;3.60;98.30;;;;;;5044271;28;20551;-76
2021/01/11 06:54:41;;;;;;;;;;;3.60;98.30;;;;;;5037281;28;20377;-75
2021/01/11 06:57:09;;;;;;;51.83;21.88;;;3.60;98.30;;;;;;5036427;28;19952;-76
2021/01/11 06:59:38;;;;;;;61.70;25.52;;;3.60;98.50;;;;;;5031830;28;20087;-75
2021/01/11 07:02:25;;;;;;;78.82;27.33;;;3.50;98.20;;;;;;5036536;28;20516;-76
2021/01/11 07:04:52;;;;;;;64.20;25.55;;;3.50;98.30;;;;;;5013228;28;20040;-75
2021/01/11 07:07:25;;;;;;;83.78;27.75;;;3.50;98.30;;;;;;5036864;28;20514;-76
2021/01/11 07:09:53;;;;;;;72.68;26.50;;;3.50;98.40;;;;;;5030902;28;20092;-76
2021/01/11 07:12:19;;;;;;;70.97;23.95;;;3.50;98.30;;;;;;5032214;28;20056;-73
2021/01/11 07:15:14;;;;;;;53.17;23.67;;;3.40;98.30;;;;;;5029258;28;20028;-73
2021/01/11 07:17:48;;;;;;;57.53;23.40;;;3.40;98.20;;;;;;5054170;28;20052;-73
2021/01/11 07:20:16;;;;;;;60.72;24.40;;;3.40;98.10;;;;;;5036137;28;20536;-73
2021/01/11 07:22:43;;;;;;;60.05;23.90;;;3.40;98.10;;;;;;5034749;28;20044;-73
2021/01/11 07:25:22;;;;;;;54.00;22.80;;;3.40;98.10;;;;;;5031267;28;20033;-72
2021/01/11 07:27:53;;;;;;;67.75;26.38;;;3.40;98.10;;;;;;5034112;28;20033;-73
2021/01/11 07:30:19;;;;;;;64.75;23.75;;;3.40;98.20;;;;;;5031165;28;20047;-74
2021/01/11 07:32:45;;;;;;;70.22;26.08;;;3.40;98.20;;;;;;5014498;28;20033;-74
2021/01/11 07:35:11;;;;;;;65.07;25.10;;;3.30;98.30;;;;;;5016973;28;20103;-78
2021/01/11 07:37:36;;;;;;;70.60;25.73;;;3.30;98.30;;;;;;5033138;28;20032;-74
2021/01/11 07:40:07;;;;;;;70.78;26.95;;;3.30;98.40;;;;;;5033846;28;20021;-76
2021/01/11 07:42:33;;;;;;;58.40;24.70;;;3.30;98.40;;;;;;5015813;28;20032;-77
2021/01/11 07:45:06;;;;;;;53.17;23.13;;;3.30;98.40;;;;;;5013637;28;20049;-74
2021/01/11 07:47:32;;;;;;;71.80;25.60;;;3.30;98.10;;;;;;5024570;28;20488;-73
2021/01/11 07:49:58;;;;;;;62.80;24.50;;;3.30;98.20;;;;;;5034914;28;20048;-73
2021/01/11 07:52:26;;;;;;;44.50;21.60;;;3.30;98.20;;;;;;5017896;28;20116;-74
2021/01/11 07:55:09;;;;;;;57.38;23.60;;;3.30;98.20;;;;;;5030740;28;20026;-74
2021/01/11 07:57:34;;;;;;;56.38;23.98;;;3.30;98.10;;;;;;5009434;28;20055;-72
2021/01/11 08:00:07;;;;;;;51.25;22.73;;;3.30;98.10;;;;;;5019349;28;20564;-73
2021/01/11 08:02:33;;;;;;;54.00;24.15;;;3.30;98.10;;;;;;5037839;28;20685;-73
2021/01/11 08:04:59;;;;;;;52.88;22.98;;;3.30;98.00;;;;;;5034057;28;20017;-72
2021/01/11 08:07:32;;;;;;;53.92;23.25;;;3.30;98.10;;;;;;5039512;28;20549;-73
2021/01/11 08:10:00;;;;;;;52.60;23.35;;;3.20;98.10;;;;;;5029997;28;20026;-72
2021/01/11 08:12:27;;;;;;;50.28;24.05;;;3.30;98.10;;;;;;5032712;28;20036;-73
2021/01/11 08:15:04;;;;;;;59.78;24.38;;;3.20;98.00;;;;;;5035534;28;20039;-72
2021/01/11 08:17:34;;;;;;;51.60;23.73;;;3.20;98.00;;;;;;5032152;28;20041;-73
2021/01/11 08:19:59;;;;;;;64.70;25.13;;;3.20;98.20;;;;;;5018277;28;20025;-73
2021/01/11 08:22:28;;;;;;;61.85;24.35;;;3.20;98.20;;;;;;5016266;28;20081;-73
2021/01/11 08:24:56;;;;;;;57.72;24.85;;;3.20;98.30;;;;;;5032683;28;20017;-73
2021/01/11 08:27:46;;;;;;;73.18;27.35;;;3.20;98.40;;;;;;5035201;28;20030;-73
2021/01/11 08:30:16;;;;;;;45.35;21.13;;;3.20;98.40;;;;;;5046049;28;20052;-73
2021/01/11 08:32:42;;;;;;;55.63;23.38;;;3.20;98.30;;;;;;5033259;28;20429;-75
2021/01/11 08:35:09;;;;;;;54.25;24.30;;;3.20;98.10;;;;;;5035385;28;20021;-73
2021/01/11 08:37:35;;;;;;;69.22;27.33;;;3.20;98.10;;;;;;5039394;28;20488;-73
2021/01/11 08:40:08;;;;;;;57.42;25.25;;;3.10;98.20;;;;;;5034589;28;20030;-74
2021/01/11 08:42:35;;;;;;;64.85;25.73;;;3.10;98.30;;;;;;5036591;28;20203;-75
2021/01/11 08:45:39;;;;;;;59.42;26.05;;;3.20;98.30;;;;;;5032458;28;20049;-74
2021/01/11 08:48:09;;;;;;;60.05;26.08;;;3.10;98.30;;;;;;5020081;28;20017;-74
2021/01/11 08:50:43;;;;;;;69.68;27.42;;;3.10;98.30;;;;;;5033283;28;20018;-74
2021/01/11 08:53:23;;;;;;;63.30;26.80;;;3.10;98.30;;;;;;5034816;28;20117;-74
2021/01/11 08:56:05;;;;;;;76.75;27.13;;;3.10;98.30;;;;;;5035385;28;20036;-76
2021/01/11 08:58:32;;;;;;;74.53;29.15;;;3.10;98.30;;;;;;5028122;28;20563;-76
2021/01/11 09:01:36;;;;;;;74.32;26.83;;;3.10;98.30;;;;;;5025774;28;20080;-74
2021/01/11 09:04:03;;;;;;;85.85;28.98;;;3.20;98.30;;;;;;5026108;28;20084;-74
2021/01/11 09:06:45;;;;;;;67.47;27.48;;;3.30;98.80;;;;;;5019271;28;20493;-75
2021/01/11 09:09:14;;;;;;;66.05;28.42;;;3.40;98.50;;;;;;5035743;28;20571;-75
2021/01/11 09:11:41;;;;;;;67.82;28.50;;;3.30;98.10;;;;;;5039092;28;20550;-74
2021/01/11 09:14:08;;;;;;;61.97;26.75;;;3.30;98.10;;;;;;5038925;28;20025;-75
2021/01/11 09:16:35;;;;;;;92.05;33.38;;;3.30;98.20;;;;;;5037141;28;20032;-75
2021/01/11 09:19:20;;;;;;;80.82;31.92;;;3.30;98.20;;;;;;5012911;28;20456;-74
2021/01/11 09:21:58;;;;;;;80.40;30.13;;;3.30;98.30;;;;;;5037813;28;20033;-75
2021/01/11 09:24:24;;;;;;;81.35;31.58;;;3.30;98.30;;;;;;5035600;28;20494;-75
2021/01/11 09:26:52;;;;;;;90.70;32.60;;;3.20;98.20;;;;;;5035281;28;20115;-76
2021/01/11 09:29:18;;;;;;;98.63;34.03;;;3.20;98.20;;;;;;5015232;28;20038;-75
2021/01/11 09:31:43;;;;;;;106.13;33.83;;;3.20;98.40;;;;;;5033944;28;20022;-75
2021/01/11 09:34:09;;;;;;;112.63;36.60;;;3.20;98.50;;;;;;5018051;28;20111;-75
2021/01/11 09:36:37;;;;;;;106.53;36.17;;;3.30;98.50;;;;;;5032933;28;20500;-75
2021/01/11 09:39:05;;;;;;;113.20;36.42;;;3.30;98.40;;;;;;5029739;28;20022;-75
2021/01/11 09:41:31;;;;;;;101.80;34.28;;;3.30;98.40;;;;;;5034135;28;20026;-75
2021/01/11 09:43:56;;;;;;;95.63;34.65;;;3.30;98.40;;;;;;5037213;28;20033;-75
2021/01/11 09:46:22;;;;;;;92.88;33.55;;;3.30;98.30;;;;;;5035483;28;20028;-75
2021/01/11 09:48:48;;;;;;;101.60;35.22;;;3.30;98.40;;;;;;5018663;28;20022;-76
2021/01/11 09:51:14;;;;;;;103.55;35.42;;;3.30;98.30;;;;;;5036355;28;20469;-76
2021/01/11 09:53:39;;;;;;;107.65;36.03;;;3.30;98.10;;;;;;5036041;28;20086;-75
2021/01/11 09:56:05;;;;;;;119.72;34.63;;;3.30;98.20;;;;;;5037526;28;20071;-76
2021/01/11 09:58:31;;;;;;;93.90;32.95;;;3.30;98.50;;;;;;5036914;28;20064;-75
2021/01/11 10:00:57;;;;;;;99.20;32.97;;;3.30;98.30;;;;;;5037134;28;20090;-76
2021/01/11 10:03:22;;;;;;;111.00;34.58;;;3.30;98.20;;;;;;5035314;28;20029;-75
2021/01/11 10:06:01;;;;;;;108.35;33.45;;;3.30;98.20;;;;;;5036825;28;20507;-76
2021/01/11 10:08:27;;;;;;;103.40;32.70;;;3.30;98.30;;;;;;5039562;28;20030;-75
2021/01/11 10:10:55;;;;;;;109.00;32.05;;;3.30;98.30;;;;;;5041641;28;20251;-75
2021/01/11 10:13:21;;;;;;;100.75;31.15;;;3.30;98.30;;;;;;5038935;28;20055;-74
2021/01/11 10:15:46;;;;;;;99.57;30.67;;;3.30;98.20;;;;;;5039856;28;20399;-74
2021/01/11 10:18:12;;;;;;;103.22;32.47;;;3.30;98.20;;;;;;5034410;28;20036;-75
2021/01/11 10:20:38;;;;;;;126.00;33.92;;;3.30;98.30;;;;;;5015364;28;20031;-74
2021/01/11 10:23:03;;;;;;;91.93;29.92;;;3.30;98.30;;;;;;5016182;28;21822;-74
2021/01/11 10:25:30;;;;;;;85.18;28.40;;;3.30;98.30;;;;;;5013975;28;20069;-75
2021/01/11 10:27:55;;;;;;;89.80;30.65;;;3.30;98.10;;;;;;5029831;28;20013;-74
2021/01/11 10:30:21;;;;;;;94.63;30.02;;;3.30;98.10;;;;;;5031395;28;20028;-74
2021/01/11 10:32:47;;;;;;;109.43;34.88;;;3.30;98.20;;;;;;5031634;28;20044;-75
2021/01/11 10:35:13;;;;;;;87.38;30.10;;;3.30;98.20;;;;;;5037806;28;20037;-74
2021/01/11 10:37:38;;;;;;;85.45;29.20;;;3.30;98.20;;;;;;5038191;28;20035;-74
2021/01/11 10:40:05;;;;;;;80.88;26.90;;;3.30;98.00;;;;;;5016519;28;20048;-74
2021/01/11 10:42:30;;;;;;;83.57;28.00;;;3.30;98.00;;;;;;5036405;28;20029;-75
2021/01/11 10:44:56;;;;;;;91.13;28.15;;;3.20;98.00;;;;;;5036340;28;20397;-74
2021/01/11 10:47:22;;;;;;;79.43;26.35;;;3.20;98.20;;;;;;5032399;28;20064;-74
2021/01/11 10:49:48;;;;;;;72.85;25.73;;;3.20;98.20;;;;;;5013147;28;20021;-73
2021/01/11 10:52:14;;;;;;;86.80;27.60;;;3.20;98.10;;;;;;5030232;28;20548;-74
2021/01/11 10:54:39;;;;;;;97.93;29.70;;;3.20;98.20;;;;;;5036532;28;20164;-72
2021/01/11 10:57:05;;;;;;;76.85;26.73;;;3.10;98.20;;;;;;5032712;28;20069;-74
2021/01/11 10:59:31;;;;;;;98.15;28.27;;;3.20;98.20;;;;;;5033882;28;20030;-73
2021/01/11 11:01:56;;;;;;;79.38;26.35;;;3.20;98.20;;;;;;5035138;28;20044;-72
2021/01/11 11:04:23;;;;;;;77.40;25.10;;;3.30;98.00;;;;;;5034752;28;20041;-73
2021/01/11 11:06:49;;;;;;;75.72;25.15;;;3.30;98.00;;;;;;5015873;28;20039;-73
2021/01/11 11:09:15;;;;;;;77.30;25.10;;;3.20;98.00;;;;;;5033013;28;20048;-74
2021/01/11 11:11:41;;;;;;;62.65;23.85;;;3.20;98.10;;;;;;5036074;28;20473;-73
2021/01/11 11:14:07;;;;;;;70.57;24.98;;;3.30;98.40;;;;;;5035675;28;20021;-73
2021/01/11 11:16:33;;;;;;;57.70;21.58;;;3.40;98.30;;;;;;5038778;28;20031;-74
2021/01/11 11:18:59;;;;;;;59.88;21.67;;;3.40;97.90;;;;;;5034753;28;20057;-73
2021/01/11 11:21:24;;;;;;;63.78;22.55;;;3.30;97.90;;;;;;5038746;28;20171;-73
2021/01/11 11:23:50;;;;;;;66.70;22.52;;;3.30;98.00;;;;;;5036018;28;20039;-75
2021/01/11 11:26:20;;;;;;;61.20;23.83;;;3.30;97.90;;;;;;5034974;28;20021;-72
2021/01/11 11:28:46;;;;;;;58.10;23.17;;;3.30;97.80;;;;;;5035608;28;20038;-72
2021/01/11 11:31:12;;;;;;;55.70;21.40;;;3.20;97.80;;;;;;5032693;28;20044;-72
2021/01/11 11:33:40;;;;;;;61.53;22.83;;;3.20;97.90;;;;;;5033249;28;20504;-72
2021/01/11 11:36:05;;;;;;;53.40;21.60;;;3.20;97.90;;;;;;5036531;28;20029;-74
2021/01/11 11:38:31;;;;;;;70.85;23.85;;;3.20;98.00;;;;;;5033668;28;20035;-73
2021/01/11 11:40:57;;;;;;;62.60;23.85;;;3.10;97.80;;;;;;5035513;28;20038;-73
2021/01/11 11:43:23;;;;;;;51.38;19.92;;;3.10;98.00;;;;;;5037079;28;20470;-73
2021/01/11 11:45:49;;;;;;;52.95;21.35;;;3.20;97.90;;;;;;5019820;28;20028;-73
2021/01/11 11:48:15;;;;;;;63.58;23.48;;;3.20;97.90;;;;;;5031221;28;20020;-73
2021/01/11 11:50:41;;;;;;;63.90;22.95;;;3.10;98.10;;;;;;5034242;28;20045;-73
2021/01/11 11:53:07;;;;;;;66.90;24.80;;;3.20;98.10;;;;;;5035408;28;20034;-75
2021/01/11 11:55:34;;;;;;;70.43;25.20;;;3.20;98.10;;;;;;5016174;28;20033;-74
2021/01/11 11:58:02;;;;;;;77.07;27.88;;;3.10;98.10;;;;;;5034640;28;20064;-72
2021/01/11 12:00:28;;;;;;;61.97;24.40;;;3.10;98.10;;;;;;5027973;28;20029;-72
2021/01/11 12:02:54;;;;;;;75.65;27.60;;;3.20;98.00;;;;;;5030677;28;20503;-73
2021/01/11 12:05:19;;;;;;;76.82;26.40;;;3.10;98.00;;;;;;5023990;28;20025;-72
2021/01/11 12:07:50;;;;;;;69.15;24.63;;;3.10;98.00;;;;;;5032934;28;20530;-73
2021/01/11 12:10:16;;;;;;;64.65;25.05;;;3.10;98.10;;;;;;5040050;28;20550;-72
2021/01/11 12:12:47;;;;;;;66.07;25.90;;;3.10;98.10;;;;;;5038710;28;20064;-72
2021/01/11 12:15:14;;;;;;;57.72;24.63;;;3.30;98.70;;;;;;5022004;28;20025;-73
2021/01/11 12:17:41;;;;;;;63.78;26.83;;;3.30;98.00;;;;;;5035239;28;20544;-75
2021/01/11 12:20:07;;;;;;;61.78;25.33;;;3.30;97.60;;;;;;5039928;28;20484;-74
2021/01/11 12:22:34;;;;;;;63.67;26.15;;;3.30;97.60;;;;;;5034340;28;20033;-73
2021/01/11 12:24:59;;;;;;;67.45;26.75;;;3.20;97.70;;;;;;5033668;28;20108;-73
2021/01/11 12:27:25;;;;;;;69.18;26.40;;;3.20;97.70;;;;;;5042007;28;20120;-72
2021/01/11 12:29:51;;;;;;;80.00;27.00;;;3.20;97.80;;;;;;5023310;28;20021;-73
2021/01/11 12:32:18;;;;;;;82.50;29.33;;;3.10;97.90;;;;;;5037007;28;20067;-73
2021/01/11 12:34:44;;;;;;;77.13;28.40;;;3.10;98.00;;;;;;5040735;28;20025;-74
2021/01/11 12:37:13;;;;;;;85.40;29.75;;;3.20;98.00;;;;;;5043455;28;20035;-73
2021/01/11 12:39:39;;;;;;;74.03;27.45;;;3.20;98.50;;;;;;5035063;28;20029;-74
2021/01/11 12:42:08;;;;;;;86.25;30.05;;;3.40;98.50;;;;;;5035471;28;20033;-74